Time;durP1;ratioP1;P1;durP2;ratioP2;P2;SDS_P1;SDS_P2;PMS_P1;PMS_P2;Temp;Humidity;BMP_temperature;BMP_pressure;BME280_temperature;BME280_humidity;BME280_pressure;Samples;Min_cycle;Max_cycle;Signal;HPM_P1;HPM_P2
2023/12/26 00:01:16;;;;;;;0.50;0.17;;;;;;;10.72;99.06;99606.59;10333172;28;20058;-62
2023/12/26 00:06:21;;;;;;;0.10;0.10;;;;;;;10.65;99.04;99590.38;10345749;28;20046;-61
2023/12/26 00:11:23;;;;;;;0.47;0.15;;;;;;;10.57;99.89;99598.22;10341358;28;20590;-61
2023/12/26 00:16:24;;;;;;;0.93;0.03;;;;;;;10.31;99.88;99564.13;10339786;28;20114;-61
2023/12/26 00:21:26;;;;;;;0.10;0.10;;;;;;;10.50;99.60;99607.72;10343007;28;20173;-62
2023/12/26 00:26:27;;;;;;;0.63;0.10;;;;;;;10.56;99.90;99592.03;10343068;28;20104;-62
2023/12/26 00:31:29;;;;;;;0.10;0.00;;;;;;;10.60;99.32;99582.81;10348977;28;20064;-61
2023/12/26 00:36:30;;;;;;;0.10;0.10;;;;;;;10.54;99.24;99583.38;10340589;28;20562;-63
2023/12/26 00:41:33;;;;;;;1.23;0.30;;;;;;;10.56;99.02;99586.72;10352346;28;20088;-62
2023/12/26 00:46:34;;;;;;;0.10;0.05;;;;;;;10.61;99.02;99578.31;10343619;28;20667;-63
2023/12/26 00:51:36;;;;;;;0.08;0.00;;;;;;;10.66;99.00;99569.91;10344582;28;20046;-63
2023/12/26 00:56:37;;;;;;;0.10;0.00;;;;;;;10.60;98.28;99572.16;10337547;28;20061;-62
2023/12/26 01:01:40;;;;;;;1.52;0.10;;;;;;;10.67;98.34;99564.44;10345239;28;20163;-62
2023/12/26 01:06:42;;;;;;;0.10;0.00;;;;;;;10.74;98.01;99552.25;10344575;28;20057;-63
2023/12/26 01:11:43;;;;;;;0.10;0.00;;;;;;;10.66;97.70;99553.94;10343471;28;20144;-62
2023/12/26 01:16:45;;;;;;;0.10;0.00;;;;;;;10.68;98.72;99560.81;10343013;28;20050;-64
2023/12/26 01:21:46;;;;;;;1.25;0.10;;;;;;;10.68;98.47;99562.63;10338060;28;20054;-62
2023/12/26 01:26:48;;;;;;;0.10;0.00;;;;;;;10.54;99.11;99575.38;10341382;28;20116;-63
2023/12/26 01:31:50;;;;;;;0.10;0.00;;;;;;;10.57;98.96;99567.13;10344454;28;20060;-62
2023/12/26 01:36:51;;;;;;;0.00;0.00;;;;;;;10.57;99.32;99579.59;10342076;28;20057;-61
2023/12/26 01:41:53;;;;;;;0.22;0.00;;;;;;;10.58;99.07;99571.47;10318049;28;20054;-62
2023/12/26 01:46:55;;;;;;;0.45;0.00;;;;;;;10.67;98.63;99582.25;10359660;28;20096;-63
2023/12/26 01:51:58;;;;;;;3.00;0.25;;;;;;;10.52;98.63;99577.31;10331021;28;20057;-62
2023/12/26 01:57:02;;;;;;;0.10;0.00;;;;;;;10.57;98.64;99585.75;10359938;28;20190;-62
2023/12/26 02:02:05;;;;;;;0.00;0.00;;;;;;;10.63;98.35;99575.50;10346488;28;20042;-62
2023/12/26 02:07:07;;;;;;;0.20;0.00;;;;;;;10.65;98.47;99595.69;10343291;28;20519;-62
2023/12/26 02:12:09;;;;;;;0.32;0.00;;;;;;;10.62;99.05;99598.63;10345797;28;20046;-62
2023/12/26 02:17:18;;;;;;;0.20;0.00;;;;;;;10.68;100.00;99605.22;10350195;28;20054;-61
2023/12/26 02:22:20;;;;;;;0.20;0.00;;;;;;;10.57;100.00;99604.38;10343449;28;20057;-62
2023/12/26 02:27:29;;;;;;;0.82;0.10;;;;;;;10.58;100.00;99613.19;10342263;28;20053;-62
2023/12/26 02:32:33;;;;;;;0.22;0.10;;;;;;;10.56;100.00;99608.00;10306620;28;20803;-62
2023/12/26 02:37:36;;;;;;;0.60;0.00;;;;;;;10.45;99.62;99581.53;10300824;28;20053;-62
2023/12/26 02:42:38;;;;;;;2.42;0.73;;;;;;;10.54;98.16;99599.34;10332911;28;20084;-62
2023/12/26 02:47:40;;;;;;;1.27;0.30;;;;;;;10.57;96.16;99622.19;10333004;28;20081;-61
2023/12/26 02:52:43;;;;;;;0.77;0.30;;;;;;;10.53;95.36;99624.25;10345948;28;20518;-64
2023/12/26 02:57:44;;;;;;;1.05;0.25;;;;;;;10.64;94.22;99625.09;10335495;28;20057;-62
2023/12/26 03:02:46;;;;;;;0.70;0.30;;;;;;;10.63;92.99;99632.25;10343911;28;20050;-62
2023/12/26 03:07:48;;;;;;;2.40;0.30;;;;;;;10.44;93.04;99582.50;10332519;28;20058;-62
2023/12/26 03:12:49;;;;;;;1.67;0.43;;;;;;;10.73;91.22;99621.59;10324661;28;20046;-63
2023/12/26 03:17:53;;;;;;;2.35;0.60;;;;;;;10.72;90.03;99615.44;10336106;28;20565;-62
2023/12/26 03:22:55;;;;;;;3.83;0.73;;;;;;;10.59;88.46;99605.06;10329120;28;20088;-64
2023/12/26 03:27:57;;;;;;;2.65;0.50;;;;;;;10.66;88.76;99609.81;10340150;28;20662;-64
2023/12/26 03:32:58;;;;;;;2.95;0.40;;;;;;;10.61;88.75;99595.13;10339589;28;20057;-63
2023/12/26 03:38:01;;;;;;;3.38;0.70;;;;;;;10.63;88.42;99610.09;10347079;28;20061;-63
2023/12/26 03:43:03;;;;;;;3.97;0.75;;;;;;;10.60;88.92;99609.41;10319626;28;20061;-62
2023/12/26 03:48:05;;;;;;;1.50;0.55;;;;;;;10.55;88.67;99601.03;10343622;28;21167;-63
2023/12/26 03:53:07;;;;;;;7.50;1.02;;;;;;;10.57;89.10;99599.06;10348784;28;20042;-62
2023/12/26 03:58:09;;;;;;;4.65;1.05;;;;;;;10.55;89.08;99603.69;10350688;28;20177;-63
2023/12/26 04:03:12;;;;;;;5.68;1.70;;;;;;;10.49;88.68;99603.38;10353907;28;20041;-62
2023/12/26 04:08:14;;;;;;;2.67;0.67;;;;;;;10.51;89.56;99620.03;10351846;28;20049;-61
2023/12/26 04:13:15;;;;;;;4.03;1.02;;;;;;;10.40;89.30;99587.28;10349241;28;20137;-62
2023/12/26 04:18:17;;;;;;;6.35;1.15;;;;;;;10.41;88.70;99604.09;10349324;28;21020;-63
2023/12/26 04:23:19;;;;;;;3.45;0.98;;;;;;;10.42;89.55;99597.78;10359923;28;20061;-61
2023/12/26 04:28:20;;;;;;;5.32;1.33;;;;;;;10.45;88.70;99610.81;10353279;28;20065;-61
2023/12/26 04:33:25;;;;;;;5.28;1.60;;;;;;;10.44;88.71;99603.81;10363746;28;20052;-61
2023/12/26 04:38:26;;;;;;;5.13;1.53;;;;;;;10.35;88.83;99584.19;10353122;28;20053;-62
2023/12/26 04:43:28;;;;;;;8.05;1.63;;;;;;;10.43;89.26;99621.59;10348958;28;20056;-62
2023/12/26 04:48:31;;;;;;;4.72;1.40;;;;;;;10.48;89.22;99618.50;10349591;28;20592;-62
2023/12/26 04:53:32;;;;;;;3.58;1.10;;;;;;;10.48;90.04;99626.50;10361071;28;20054;-62
2023/12/26 04:58:34;;;;;;;9.73;1.70;;;;;;;10.38;89.66;99622.97;10353166;28;20056;-61
2023/12/26 05:03:35;;;;;;;6.13;1.75;;;;;;;10.42;90.22;99633.22;10351039;28;20061;-63
2023/12/26 05:08:40;;;;;;;4.30;1.65;;;;;;;10.38;91.69;99641.59;10342186;28;20650;-62
2023/12/26 05:13:41;;;;;;;4.05;1.75;;;;;;;10.37;92.24;99645.22;10343031;28;20068;-63
2023/12/26 05:18:43;;;;;;;3.13;1.20;;;;;;;10.41;92.39;99654.63;10351564;28;20128;-61
2023/12/26 05:23:46;;;;;;;5.47;1.70;;;;;;;10.42;92.53;99681.09;10344164;28;20446;-64
2023/12/26 05:28:48;;;;;;;3.65;1.35;;;;;;;10.39;93.15;99665.41;10346044;28;20943;-64
2023/12/26 05:33:50;;;;;;;6.50;1.60;;;;;;;10.41;93.54;99673.25;10342461;28;20057;-62
2023/12/26 05:38:52;;;;;;;6.45;2.03;;;;;;;10.34;94.11;99667.63;10344646;28;20785;-63
2023/12/26 05:43:53;;;;;;;3.30;1.40;;;;;;;10.33;94.13;99683.69;10350527;28;20052;-61
2023/12/26 05:48:56;;;;;;;3.88;1.38;;;;;;;10.39;94.38;99680.53;10349271;28;21346;-62
2023/12/26 05:53:58;;;;;;;7.35;1.65;;;;;;;10.41;94.07;99694.53;10349300;28;20052;-62
2023/12/26 05:59:00;;;;;;;4.05;1.20;;;;;;;10.34;94.62;99698.72;10338416;28;20726;-63
2023/12/26 06:04:02;;;;;;;4.13;1.50;;;;;;;10.21;95.81;99698.94;10345036;28;20101;-62
2023/12/26 06:09:04;;;;;;;3.17;0.95;;;;;;;10.30;96.36;99708.78;10344084;28;20831;-62
2023/12/26 06:14:07;;;;;;;4.47;1.63;;;;;;;10.30;96.36;99708.78;10352320;28;20064;-62
2023/12/26 06:19:09;;;;;;;3.85;1.40;;;;;;;10.27;96.93;99717.84;10329628;28;20152;-61
2023/12/26 06:24:12;;;;;;;4.65;1.50;;;;;;;10.30;97.08;99739.81;10340648;28;20104;-63
2023/12/26 06:29:14;;;;;;;3.22;1.10;;;;;;;10.20;97.38;99740.63;10343581;28;20046;-61
2023/12/26 06:34:17;;;;;;;4.55;1.73;;;;;;;10.25;97.47;99754.41;10343334;28;20662;-63
2023/12/26 06:39:18;;;;;;;3.30;0.80;;;;;;;10.20;97.33;99764.56;10349772;28;20096;-62
2023/12/26 06:44:23;;;;;;;1.90;0.70;;;;;;;10.15;97.36;99772.13;10323221;28;20201;-63
2023/12/26 06:49:24;;;;;;;4.78;1.90;;;;;;;10.14;97.86;99777.56;10358215;28;20081;-63
2023/12/26 06:54:32;;;;;;;6.75;1.55;;;;;;;10.17;97.47;99780.81;10348986;28;20558;-62
2023/12/26 06:59:34;;;;;;;3.53;1.33;;;;;;;10.15;97.04;99780.09;10356454;28;20053;-63
2023/12/26 07:04:36;;;;;;;4.38;1.02;;;;;;;10.15;97.17;99796.06;10301521;28;20492;-63
2023/12/26 07:09:38;;;;;;;3.05;0.80;;;;;;;10.13;97.10;99813.94;10311183;28;20135;-62
2023/12/26 07:14:39;;;;;;;3.38;1.00;;;;;;;10.17;96.44;99831.34;10336894;28;20061;-63
2023/12/26 07:19:41;;;;;;;4.80;1.48;;;;;;;10.11;96.37;99828.38;10336786;28;20061;-63
2023/12/26 07:24:43;;;;;;;3.70;1.33;;;;;;;10.13;96.13;99834.38;10332875;28;20081;-62
2023/12/26 07:29:44;;;;;;;4.82;1.42;;;;;;;10.29;95.95;99852.56;10315769;28;20046;-63
2023/12/26 07:34:47;;;;;;;2.95;1.00;;;;;;;10.23;95.54;99868.03;10324998;28;20053;-65
2023/12/26 07:39:48;;;;;;;4.88;1.20;;;;;;;10.20;95.37;99865.66;10337466;28;20057;-63
2023/12/26 07:44:50;;;;;;;6.90;1.90;;;;;;;10.36;95.30;99893.66;10337758;28;20084;-65
2023/12/26 07:49:53;;;;;;;3.70;1.10;;;;;;;10.33;94.63;99894.75;10344434;28;20063;-66
2023/12/26 07:54:54;;;;;;;2.28;0.90;;;;;;;10.20;94.66;99876.28;10341670;28;20050;-66
2023/12/26 07:59:56;;;;;;;4.65;1.15;;;;;;;10.33;94.33;99904.50;10336844;28;20060;-65
2023/12/26 08:04:57;;;;;;;5.57;1.00;;;;;;;10.28;94.48;99902.22;10331412;28;20061;-66
2023/12/26 08:09:59;;;;;;;2.72;0.82;;;;;;;10.31;94.90;99898.47;10303617;28;20046;-64
2023/12/26 08:15:03;;;;;;;2.27;1.07;;;;;;;10.36;94.10;99912.28;10332959;28;20089;-65
2023/12/26 08:20:05;;;;;;;5.10;1.38;;;;;;;10.34;94.33;99917.69;10335221;28;20360;-63
2023/12/26 08:25:08;;;;;;;3.08;1.00;;;;;;;10.36;94.47;99917.59;10339913;28;20121;-65
2023/12/26 08:30:10;;;;;;;4.68;0.80;;;;;;;10.34;94.61;99923.03;10323589;28;20054;-63
2023/12/26 08:35:14;;;;;;;3.40;0.80;;;;;;;10.30;94.35;99916.28;10337715;28;20061;-63
2023/12/26 08:40:18;;;;;;;2.17;0.80;;;;;;;10.48;94.40;99918.34;10341113;28;20566;-63
2023/12/26 08:45:19;;;;;;;4.38;0.98;;;;;;;10.46;94.18;99929.13;10328135;28;20661;-63
2023/12/26 08:50:21;;;;;;;2.70;0.98;;;;;;;10.43;94.10;99932.03;10357391;28;20050;-61
2023/12/26 08:55:23;;;;;;;2.78;0.98;;;;;;;10.46;94.24;99936.28;10338906;28;20050;-64
2023/12/26 09:00:24;;;;;;;2.50;0.85;;;;;;;10.47;94.15;99953.94;10337243;28;20801;-62
2023/12/26 09:05:26;;;;;;;2.85;0.65;;;;;;;10.50;94.37;99953.69;10349512;28;20049;-63
2023/12/26 09:10:29;;;;;;;3.95;1.15;;;;;;;10.47;94.71;99964.59;10331944;28;20136;-62
2023/12/26 09:15:30;;;;;;;2.33;0.88;;;;;;;10.47;94.68;99975.22;10334673;28;20587;-64
2023/12/26 09:20:32;;;;;;;2.55;0.95;;;;;;;10.54;94.76;99998.53;10355815;28;20651;-60
2023/12/26 09:25:33;;;;;;;2.05;0.50;;;;;;;10.52;95.52;100000.44;10349760;28;20648;-63
2023/12/26 09:30:36;;;;;;;1.83;0.63;;;;;;;10.54;95.35;100017.16;10345901;28;20049;-62
2023/12/26 09:35:38;;;;;;;1.95;1.25;;;;;;;10.59;95.54;100022.91;10349624;28;20060;-63
2023/12/26 09:40:40;;;;;;;2.15;0.70;;;;;;;10.57;95.80;100026.72;10347846;28;20050;-62
2023/12/26 09:45:42;;;;;;;3.42;0.85;;;;;;;10.54;95.88;100033.13;10346174;28;20068;-62
2023/12/26 09:50:44;;;;;;;1.98;0.40;;;;;;;10.57;96.14;100040.84;10342123;28;20069;-63
2023/12/26 09:55:48;;;;;;;2.28;0.60;;;;;;;10.67;95.70;100048.06;10346421;28;20586;-64
2023/12/26 10:00:51;;;;;;;1.58;0.65;;;;;;;10.73;95.38;100044.88;10343329;28;20133;-65
2023/12/26 10:05:57;;;;;;;1.35;0.68;;;;;;;10.83;98.60;100040.47;10349284;28;20052;-66
2023/12/26 10:10:59;;;;;;;1.42;0.57;;;;;;;10.87;95.12;100067.66;10341293;28;20053;-64
2023/12/26 10:16:01;;;;;;;4.13;0.90;;;;;;;10.76;95.25;100065.91;10338424;28;20052;-63
2023/12/26 10:21:03;;;;;;;2.20;0.50;;;;;;;10.69;97.86;100086.03;10346635;28;20128;-65
2023/12/26 10:26:05;;;;;;;1.20;0.50;;;;;;;10.63;100.00;100092.72;10329188;28;20054;-64
2023/12/26 10:31:15;;;;;;;2.45;0.43;;;;;;;10.63;100.00;100097.19;10350141;28;20053;-64
2023/12/26 10:36:20;;;;;;;2.50;0.50;;;;;;;10.63;100.00;100102.50;10344488;28;20058;-63
2023/12/26 10:41:27;;;;;;;1.23;0.50;;;;;;;10.70;99.90;100098.38;10340096;28;20742;-63
2023/12/26 10:46:30;;;;;;;1.00;0.30;;;;;;;10.75;99.00;100083.72;10344809;28;20109;-64
2023/12/26 10:51:34;;;;;;;1.85;0.77;;;;;;;10.96;96.59;100091.72;10343238;28;20066;-65
2023/12/26 10:56:36;;;;;;;0.52;0.20;;;;;;;11.12;96.07;100109.03;10343331;28;20177;-64
2023/12/26 13:54:35;;;;;;;1.25;0.30;;;;;;;14.92;61.82;100160.50;10337429;28;20049;-65
2023/12/26 13:59:36;;;;;;;0.95;0.30;;;;;;;14.42;62.00;100159.13;10345338;28;20511;-64
2023/12/26 14:04:38;;;;;;;1.70;0.30;;;;;;;14.15;62.90;100174.22;10345281;28;20061;-63
2023/12/26 14:09:41;;;;;;;1.45;0.20;;;;;;;13.94;64.78;100168.28;10342087;28;20053;-66
2023/12/26 14:14:42;;;;;;;1.30;0.50;;;;;;;13.77;65.88;100183.28;10338647;28;20789;-64
2023/12/26 14:19:45;;;;;;;1.83;0.30;;;;;;;13.56;65.09;100184.31;10343607;28;20387;-63
2023/12/26 14:24:46;;;;;;;1.85;0.30;;;;;;;13.46;65.08;100179.97;10343194;28;20041;-64
2023/12/26 14:29:50;;;;;;;0.90;0.13;;;;;;;13.41;61.61;100197.28;10342578;28;20049;-64
2023/12/26 14:34:52;;;;;;;1.33;0.38;;;;;;;13.32;58.60;100195.44;10345662;28;20050;-66
2023/12/26 14:39:54;;;;;;;2.47;0.30;;;;;;;13.26;57.84;100225.41;10340892;28;20145;-64
2023/12/26 14:44:56;;;;;;;2.80;0.30;;;;;;;13.03;57.99;100227.53;10342509;28;20064;-63
2023/12/26 14:49:57;;;;;;;3.03;0.80;;;;;;;12.88;57.31;100233.28;10348320;28;20053;-64
2023/12/26 14:54:59;;;;;;;0.98;0.38;;;;;;;12.81;58.07;100247.34;10341965;28;20874;-63
2023/12/26 15:00:00;;;;;;;2.13;0.43;;;;;;;12.67;56.98;100252.09;10342003;28;20061;-64
2023/12/26 15:05:04;;;;;;;4.40;0.70;;;;;;;12.56;58.56;100257.53;10349869;28;20426;-64
2023/12/26 15:10:06;;;;;;;1.70;0.40;;;;;;;12.54;59.63;100260.34;10332609;28;20057;-63
2023/12/26 15:15:08;;;;;;;1.45;0.45;;;;;;;12.38;60.56;100244.84;10339582;28;20602;-65
2023/12/26 15:20:13;;;;;;;1.05;0.50;;;;;;;12.37;60.38;100266.34;10341231;28;20143;-63
2023/12/26 15:25:14;;;;;;;2.63;0.38;;;;;;;12.27;60.92;100276.97;10342102;28;20568;-64
2023/12/26 15:30:16;;;;;;;2.20;0.45;;;;;;;12.14;61.24;100271.00;10342643;28;20389;-64
2023/12/26 15:35:18;;;;;;;2.78;0.88;;;;;;;12.25;61.46;100284.28;10334503;28;20057;-63
2023/12/26 15:40:21;;;;;;;1.20;0.50;;;;;;;12.12;62.29;100295.16;10349106;28;20751;-64
2023/12/26 15:45:23;;;;;;;2.08;0.70;;;;;;;12.10;62.39;100302.47;10326740;28;20899;-64
2023/12/26 15:50:24;;;;;;;2.08;0.68;;;;;;;11.92;62.27;100283.50;10342085;28;20136;-65
2023/12/26 15:55:26;;;;;;;3.72;0.70;;;;;;;11.92;62.15;100296.84;10337164;28;20057;-64
2023/12/26 16:00:28;;;;;;;2.47;0.65;;;;;;;11.79;62.48;100298.88;10339982;28;20048;-63
2023/12/26 16:05:29;;;;;;;2.42;0.60;;;;;;;11.82;61.88;100303.94;10339621;28;20053;-62
2023/12/26 16:10:31;;;;;;;5.28;1.10;;;;;;;11.87;62.55;100327.56;10334365;28;20077;-63
2023/12/26 16:15:33;;;;;;;3.08;0.88;;;;;;;11.70;61.96;100334.31;10342651;28;20054;-62
2023/12/26 16:20:35;;;;;;;2.03;0.70;;;;;;;11.76;62.38;100331.13;10339607;28;20042;-63
2023/12/26 16:25:36;;;;;;;3.63;0.73;;;;;;;11.72;62.46;100335.84;10340440;28;20085;-63
2023/12/26 16:30:39;;;;;;;3.22;0.70;;;;;;;11.66;63.98;100326.56;10324373;28;20136;-63
2023/12/26 16:35:44;;;;;;;3.00;1.30;;;;;;;11.66;63.15;100339.91;10327687;28;20054;-63
2023/12/26 16:40:47;;;;;;;2.60;0.80;;;;;;;11.70;63.12;100355.66;10341387;28;20057;-63
2023/12/26 16:45:48;;;;;;;3.25;1.30;;;;;;;11.63;63.21;100363.28;10343834;28;20759;-63
2023/12/26 16:50:50;;;;;;;2.92;1.10;;;;;;;11.25;63.28;100308.69;10340334;28;20057;-63
2023/12/26 16:55:53;;;;;;;3.35;0.85;;;;;;;11.65;63.65;100388.88;10349800;28;20057;-63
2023/12/26 17:00:56;;;;;;;4.57;1.58;;;;;;;11.56;62.43;100410.09;10358275;28;20069;-64
2023/12/26 17:06:01;;;;;;;2.35;0.80;;;;;;;11.55;63.98;100430.59;10346975;28;20058;-64
2023/12/26 17:11:11;;;;;;;1.88;1.10;;;;;;;11.51;63.52;100445.13;10341789;28;20538;-65
2023/12/26 17:16:15;;;;;;;4.15;1.17;;;;;;;11.31;62.79;100414.78;10336126;28;20267;-65
2023/12/26 17:21:17;;;;;;;;;;;;;;;11.55;62.55;100454.59;10344187;28;20145;-66
2023/12/26 17:26:22;;;;;;;5.95;4.18;;;;;;;11.57;63.43;100452.63;10346260;28;19924;-64
2023/12/26 17:31:23;;;;;;;3.15;1.15;;;;;;;11.51;63.90;100445.13;10327210;28;20056;-64
2023/12/26 17:36:25;;;;;;;7.35;4.47;;;;;;;11.56;63.63;100466.94;10338067;28;20079;-63
2023/12/26 17:41:27;;;;;;;6.28;1.42;;;;;;;11.55;61.65;100489.25;10341853;28;20628;-64
2023/12/26 17:46:30;;;;;;;3.15;0.90;;;;;;;11.37;61.95;100494.22;10343878;28;20680;-64
2023/12/26 17:51:36;;;;;;;3.63;1.50;;;;;;;11.41;61.43;100509.00;10346057;28;20049;-63
2023/12/26 17:56:37;;;;;;;5.15;1.40;;;;;;;11.48;61.70;100514.69;10345326;28;20120;-63
2023/12/26 18:01:41;;;;;;;3.50;1.30;;;;;;;11.41;61.99;100503.69;10346166;28;20058;-63
2023/12/26 18:06:42;;;;;;;5.40;1.40;;;;;;;11.44;62.09;100530.09;10345244;28;20069;-63
2023/12/26 18:11:45;;;;;;;5.32;0.93;;;;;;;11.38;62.16;100529.72;10344495;28;20101;-63
2023/12/26 18:16:46;;;;;;;3.85;1.40;;;;;;;11.37;62.67;100542.22;10340540;28;20134;-64
2023/12/26 18:21:50;;;;;;;4.65;1.23;;;;;;;11.37;62.47;100544.03;10347539;28;20057;-63
2023/12/26 18:26:53;;;;;;;5.32;1.33;;;;;;;11.30;62.79;100544.53;10342504;28;20132;-63
2023/12/26 18:31:57;;;;;;;4.38;1.55;;;;;;;11.18;64.21;100540.13;10343172;28;20731;-63
2023/12/26 18:37:02;;;;;;;6.07;1.85;;;;;;;11.25;63.43;100553.84;10342887;28;20049;-63
2023/12/26 18:42:07;;;;;;;6.18;2.38;;;;;;;11.17;62.92;100558.91;10350830;28;20171;-62
2023/12/26 18:47:09;;;;;;;5.38;1.77;;;;;;;11.13;63.05;100552.97;10344257;28;20061;-64
2023/12/26 18:52:12;;;;;;;5.53;2.08;;;;;;;11.05;63.64;100552.72;10342640;28;20054;-64
2023/12/26 18:57:15;;;;;;;5.18;2.50;;;;;;;11.00;64.01;100557.56;10344359;28;20603;-63
2023/12/26 19:02:17;;;;;;;5.78;1.95;;;;;;;11.04;64.80;100567.03;10328002;28;20053;-65
2023/12/26 19:07:20;;;;;;;6.07;1.67;;;;;;;10.99;64.04;100567.38;10349167;28;20114;-64
2023/12/26 19:12:21;;;;;;;7.15;2.53;;;;;;;10.95;64.54;100577.41;10343253;28;20247;-64
2023/12/26 19:17:24;;;;;;;8.20;2.08;;;;;;;10.91;63.90;100581.28;10347785;28;20416;-64
2023/12/26 19:22:27;;;;;;;6.43;2.22;;;;;;;10.89;64.47;100588.53;10340933;28;20180;-64
2023/12/26 19:27:28;;;;;;;4.45;1.33;;;;;;;10.86;64.50;100596.75;10341977;28;20057;-64
2023/12/26 19:32:30;;;;;;;5.20;1.63;;;;;;;10.82;63.65;100603.28;10338577;28;20136;-63
2023/12/26 19:37:33;;;;;;;4.60;2.05;;;;;;;10.77;63.41;100608.13;10341463;28;20065;-63
2023/12/26 19:42:34;;;;;;;4.65;1.35;;;;;;;10.72;63.64;100618.25;10340227;28;20057;-64
2023/12/26 19:47:37;;;;;;;5.20;2.38;;;;;;;10.71;64.04;100627.22;10338216;28;20069;-64
2023/12/26 19:52:38;;;;;;;5.75;1.90;;;;;;;10.65;64.14;100622.34;10349085;28;20058;-64
2023/12/26 19:57:40;;;;;;;7.05;2.45;;;;;;;10.63;65.06;100624.28;10358111;28;20094;-64
2023/12/26 20:02:41;;;;;;;5.30;2.60;;;;;;;10.69;65.08;100626.47;10310583;28;20058;-65
2023/12/26 20:07:43;;;;;;;5.88;2.75;;;;;;;10.68;65.66;100638.09;10348303;28;20207;-64
2023/12/26 20:12:45;;;;;;;7.13;2.70;;;;;;;10.68;64.13;100638.09;10342959;28;20131;-65
2023/12/26 20:17:47;;;;;;;9.00;3.55;;;;;;;10.71;65.71;100648.53;10353601;28;20060;-64
2023/12/26 20:22:49;;;;;;;8.10;2.80;;;;;;;10.75;65.93;100663.31;10337104;28;20942;-64
2023/12/26 20:27:51;;;;;;;5.05;2.47;;;;;;;10.57;66.22;100637.09;10342791;28;20137;-64
2023/12/26 20:32:54;;;;;;;5.00;2.65;;;;;;;10.56;65.45;100635.38;10343933;28;20046;-63
2023/12/26 20:37:56;;;;;;;9.20;3.85;;;;;;;10.80;66.38;100685.09;10344740;28;20056;-64
2023/12/26 20:42:58;;;;;;;6.25;2.97;;;;;;;10.82;65.75;100691.16;10336234;28;20058;-64
2023/12/26 20:48:00;;;;;;;5.43;2.80;;;;;;;10.71;64.08;100691.13;10344996;28;20197;-65
2023/12/26 20:53:03;;;;;;;5.85;2.38;;;;;;;10.42;64.77;100679.00;10333937;28;20041;-65
2023/12/26 20:58:04;;;;;;;6.53;3.47;;;;;;;10.69;67.37;100704.53;10328312;28;20061;-64
2023/12/26 21:03:07;;;;;;;12.02;5.85;;;;;;;10.78;68.14;100703.03;10341164;28;20045;-64
2023/12/26 21:08:08;;;;;;;7.05;3.97;;;;;;;10.80;70.10;100698.41;10344720;28;20042;-63
2023/12/26 21:13:10;;;;;;;6.82;3.97;;;;;;;10.82;71.04;100691.16;10334942;28;20115;-63
2023/12/26 21:18:12;;;;;;;9.00;3.95;;;;;;;10.81;71.41;100692.16;10353713;28;20455;-64
2023/12/26 21:23:14;;;;;;;6.38;3.50;;;;;;;10.83;71.54;100694.69;10351103;28;20114;-64
2023/12/26 21:28:15;;;;;;;6.50;3.53;;;;;;;10.79;70.90;100699.38;10347758;28;20686;-64
2023/12/26 21:33:17;;;;;;;6.88;3.92;;;;;;;10.74;69.89;100691.72;10348138;28;20108;-64
2023/12/26 21:38:20;;;;;;;6.60;3.25;;;;;;;10.76;67.63;100708.47;10352058;28;20053;-63
2023/12/26 21:43:21;;;;;;;8.25;3.75;;;;;;;10.74;70.92;100705.03;10352183;28;20065;-63
2023/12/26 21:48:23;;;;;;;6.60;4.13;;;;;;;10.69;71.06;100707.22;10352186;28;20499;-64
2023/12/26 21:53:28;;;;;;;8.05;3.17;;;;;;;10.78;71.12;100721.66;10354013;28;20113;-64
2023/12/26 21:58:29;;;;;;;4.85;3.17;;;;;;;10.79;71.12;100731.31;10354678;28;20054;-63
2023/12/26 22:03:36;;;;;;;6.38;2.70;;;;;;;10.83;69.70;100738.13;10337662;28;20627;-64
2023/12/26 22:08:40;;;;;;;5.45;2.75;;;;;;;10.72;73.09;100720.28;10343073;28;20087;-64
2023/12/26 22:13:41;;;;;;;6.90;3.05;;;;;;;10.71;73.18;100707.09;10352249;28;20088;-65
2023/12/26 22:18:43;;;;;;;5.45;2.90;;;;;;;10.73;74.31;100726.47;10350563;28;20160;-63
2023/12/26 22:23:44;;;;;;;6.25;2.80;;;;;;;10.66;74.29;100720.75;10344396;28;21454;-65
2023/12/26 22:28:46;;;;;;;6.85;2.60;;;;;;;10.66;74.89;100725.22;10342788;28;20137;-65
2023/12/26 22:33:48;;;;;;;7.13;3.08;;;;;;;10.67;75.18;100729.56;10337671;28;20045;-64
2023/12/26 22:38:50;;;;;;;6.15;3.25;;;;;;;10.64;74.77;100729.81;10341100;28;20164;-65
2023/12/26 22:43:51;;;;;;;4.82;3.22;;;;;;;10.57;74.18;100737.41;10354607;28;20062;-64
2023/12/26 22:48:54;;;;;;;8.00;4.20;;;;;;;10.54;73.31;100741.13;10336765;28;20057;-64
2023/12/26 22:53:56;;;;;;;5.35;2.90;;;;;;;10.53;73.32;100741.25;10350868;28;20161;-64
2023/12/26 22:58:57;;;;;;;5.95;3.50;;;;;;;10.44;73.23;100732.94;10343407;28;20064;-65
2023/12/26 23:03:59;;;;;;;6.63;4.63;;;;;;;10.36;74.01;100743.31;10342416;28;21407;-64
2023/12/26 23:09:00;;;;;;;6.80;3.35;;;;;;;10.34;73.81;100744.38;10339074;28;20061;-63
2023/12/26 23:14:05;;;;;;;7.78;3.88;;;;;;;10.32;73.54;100746.28;10341270;28;20156;-64
2023/12/26 23:19:14;;;;;;;5.45;3.08;;;;;;;10.30;74.65;100748.16;10345396;28;20063;-64
2023/12/26 23:24:15;;;;;;;5.85;3.50;;;;;;;10.24;74.28;100752.97;10341728;28;20204;-64
2023/12/26 23:29:19;;;;;;;5.40;3.97;;;;;;;10.11;74.37;100728.22;10337800;28;20075;-64
2023/12/26 23:34:20;;;;;;;6.65;4.05;;;;;;;10.04;75.84;100737.56;10337688;28;20064;-63
2023/12/26 23:39:41;;;;;;;4.60;3.00;;;;;;;9.98;79.98;100735.34;10332192;28;20049;-63
2023/12/26 23:44:42;;;;;;;4.93;3.03;;;;;;;9.98;81.40;100746.00;10338039;28;20061;-63
2023/12/26 23:49:45;;;;;;;4.00;3.03;;;;;;;10.00;81.56;100744.09;10338124;28;20053;-64
2023/12/26 23:54:48;;;;;;;7.87;3.27;;;;;;;9.82;81.93;100715.16;10344450;28;20057;-63
2023/12/26 23:59:49;;;;;;;4.80;3.70;;;;;;;10.04;82.06;100746.41;10332733;28;20308;-64
